Flight Track Log - Related Links

Times and Time Zones

All times are in EDT time to prevent confusion due to time zone crossing. See the N5352D flight status page for this flight to view local times or setup timezone preferences in your user account.

Time Position Orientation Groundspeed Altitude Reporting Facility
EDT Latitude Longitude Course Direction KTS MPH feet Rate Location/Type
Sat 09:46:06 AM 38.5708 -88.0150 261° West 113 130 4,800  Level Kansas City Center
Sat 09:51:06 AM 38.5442 -88.2192 255° West 124 143 6,100 217 Climbing Kansas City Center
Sat 09:52:06 AM 38.5342 -88.2678 267° West 130 150 6,100  Level Kansas City Center
Sat 09:53:06 AM 38.5325 -88.3158 255° West 130 150 6,100  Level Kansas City Center
Sat 09:54:06 AM 38.5225 -88.3644 262° West 135 155 6,100 100 Level Kansas City Center
Sat 09:55:06 AM 38.5167 -88.4153 260° West 140 161 6,300 150 Climbing Kansas City Center
Sat 09:56:06 AM 38.5106 -88.4583 261° West 140 161 6,400 100 Climbing Kansas City Center
Sat 09:57:06 AM 38.5047 -88.5067 257° West 140 161 6,500 50 Climbing Kansas City Center
Sat 09:58:06 AM 38.4967 -88.5525 264° West 140 161 6,500  Level Kansas City Center
Sat 09:59:06 AM 38.4928 -88.6006 262° West 140 161 6,500  Level Kansas City Center
Sat 10:00:06 AM 38.4869 -88.6514 257° West 145 167 6,500  Level Kansas City Center
Sat 10:01:06 AM 38.4786 -88.6969 260° West 145 167 6,500  Level Kansas City Center
Sat 10:02:06 AM 38.4708 -88.7508 260° West 145 167 6,500  Level Kansas City Center
Sat 10:03:06 AM 38.4647 -88.7936 259° West 145 167 6,500  Level Kansas City Center
Sat 10:04:06 AM 38.4567 -88.8472 263° West 145 167 6,500  Level Kansas City Center
Sat 10:05:06 AM 38.4525 -88.8900 259° West 140 161 6,500  Level Kansas City Center
Sat 10:06:06 AM 38.4444 -88.9436 260° West 145 167 6,500  Level Kansas City Center
Sat 10:07:06 AM 38.4383 -88.9892 259° West 145 167 6,500  Level Kansas City Center
Sat 10:08:06 AM 38.4303 -89.0428 260° West 145 167 6,500  Level Kansas City Center
Sat 10:09:06 AM 38.4242 -89.0883 261° West 145 167 6,500  Level Kansas City Center
Sat 10:10:06 AM 38.4181 -89.1392 256° West 145 167 6,500  Level Kansas City Center
Sat 10:11:06 AM 38.4097 -89.1822 259° West 145 167 6,500  Level Kansas City Center
Sat 10:12:06 AM 38.4014 -89.2358 263° West 145 167 6,500  Level Kansas City Center
Sat 10:13:06 AM 38.3972 -89.2786 259° West 145 167 6,500  Level Kansas City Center
Sat 10:14:06 AM 38.3892 -89.3322 259° West 140 161 6,500  Level Kansas City Center
Sat 10:15:06 AM 38.3825 -89.3750 104° East 140 161 6,500 -64 Level Kansas City Center
Sat 10:15:40 AM 38.3772 -89.3472 256° West 142 163 6,400 -82 Descending FAA TRACON SMA TRACON (SMA)
Sat 10:16:19 AM 38.3714 -89.3778 261° West 141 162 6,400  Level FAA TRACON SMA TRACON (SMA)
Sat 10:17:00 AM 38.3672 -89.4111 258° West 141 162 6,400  Level FAA TRACON SMA TRACON (SMA)
Sat 10:17:40 AM 38.3617 -89.4453 260° West 141 162 6,400  Level FAA TRACON SMA TRACON (SMA)
Sat 10:18:20 AM 38.3572 -89.4761 259° West 142 163 6,400  Level FAA TRACON SMA TRACON (SMA)
Sat 10:19:00 AM 38.3522 -89.5097 258° West 142 163 6,400  Level FAA TRACON SMA TRACON (SMA)
Sat 10:19:40 AM 38.3467 -89.5439 259° West 141 162 6,400  Level FAA TRACON SMA TRACON (SMA)
Sat 10:20:20 AM 38.3419 -89.5736 260° West 140 161 6,400  Level FAA TRACON SMA TRACON (SMA)
Sat 10:21:01 AM 38.3372 -89.6069 259° West 139 160 6,400  Level FAA TRACON SMA TRACON (SMA)
Sat 10:21:40 AM 38.3319 -89.6417 260° West 143 165 6,400  Level FAA TRACON SMA TRACON (SMA)
Sat 10:22:20 AM 38.3278 -89.6711 258° West 141 162 6,400  Level FAA TRACON SMA TRACON (SMA)
Sat 10:23:00 AM 38.3222 -89.7056 260° West 143 165 6,400  Level FAA TRACON SMA TRACON (SMA)
Sat 10:23:40 AM 38.3175 -89.7411 259° West 145 167 6,400 75 Level FAA TRACON SMA TRACON (SMA)
Sat 10:24:20 AM 38.3128 -89.7722 258° West 148 170 6,500  Climbing FAA TRACON SMA TRACON (SMA)
Sat 10:25:00 AM 38.3069 -89.8072 258° West 146 168 6,400 -75 Descending FAA TRACON SMA TRACON (SMA)
Sat 10:25:40 AM 38.3008 -89.8431 259° West 148 170 6,400  Level FAA TRACON SMA TRACON (SMA)
Sat 10:26:19 AM 38.2961 -89.8739 260° West 145 167 6,400  Level FAA TRACON SMA TRACON (SMA)
Sat 10:27:00 AM 38.2911 -89.9086 259° West 143 165 6,400  Level FAA TRACON SMA TRACON (SMA)
Sat 10:27:39 AM 38.2856 -89.9439 259° West 145 167 6,400  Level FAA TRACON SMA TRACON (SMA)
Sat 10:28:19 AM 38.2806 -89.9758 259° West 146 168 6,400  Level FAA TRACON SMA TRACON (SMA)
Sat 10:29:00 AM 38.2753 -90.0108 258° West 147 169 6,400  Level FAA TRACON SMA TRACON (SMA)
Sat 10:29:40 AM 38.2694 -90.0467 259° West 149 171 6,400 75 Level FAA TRACON SMA TRACON (SMA)
Sat 10:30:20 AM 38.2650 -90.0769 259° West 146 168 6,500 76 Climbing FAA TRACON SMA TRACON (SMA)
Sat 10:30:59 AM 38.2594 -90.1125 259° West 146 168 6,500 -75 Level FAA TRACON SMA TRACON (SMA)
Sat 10:31:40 AM 38.2542 -90.1483 259° West 148 170 6,400  Descending FAA TRACON SMA TRACON (SMA)
Sat 10:32:19 AM 38.2494 -90.1786 259° West 147 169 6,500  Climbing FAA TRACON SMA TRACON (SMA)
Sat 10:32:59 AM 38.2439 -90.2150 259° West 149 171 6,400 -74 Descending FAA TRACON SMA TRACON (SMA)
Sat 10:33:40 AM 38.2383 -90.2503 259° West 146 168 6,400  Level FAA TRACON SMA TRACON (SMA)
Sat 10:34:19 AM 38.2336 -90.2814 259° West 146 168 6,400 76 Level FAA TRACON SMA TRACON (SMA)
Sat 10:34:59 AM 38.2281 -90.3172 259° West 148 170 6,500  Climbing FAA TRACON SMA TRACON (SMA)
Sat 10:35:39 AM 38.2225 -90.3536 259° West 149 171 6,400 -75 Descending FAA TRACON SMA TRACON (SMA)
Sat 10:36:19 AM 38.2178 -90.3847 259° West 147 169 6,400  Level FAA TRACON SMA TRACON (SMA)
Sat 10:36:59 AM 38.2125 -90.4206 258° West 150 173 6,400  Level FAA TRACON SMA TRACON (SMA)
Sat 10:37:39 AM 38.2069 -90.4544 260° West 148 170 6,400  Level FAA TRACON SMA TRACON (SMA)
Sat 10:38:19 AM 38.2022 -90.4875 259° West 150 173 6,400 75 Level FAA TRACON SMA TRACON (SMA)
Sat 10:38:59 AM 38.1967 -90.5228 259° West 149 171 6,500 75 Climbing FAA TRACON SMA TRACON (SMA)
Sat 10:39:39 AM 38.1911 -90.5586 259° West 149 171 6,500 -74 Level FAA TRACON SMA TRACON (SMA)
Sat 10:40:20 AM 38.1864 -90.5906 258° West 148 170 6,400 -75 Descending FAA TRACON SMA TRACON (SMA)
Sat 10:40:59 AM 38.1808 -90.6242 260° West 145 167 6,400 76 Level FAA TRACON SMA TRACON (SMA)
Sat 10:41:39 AM 38.1758 -90.6606 259° West 148 170 6,500 74 Climbing FAA TRACON SMA TRACON (SMA)
Sat 10:42:20 AM 38.1711 -90.6917 258° West 147 169 6,500  Level FAA TRACON SMA TRACON (SMA)
Sat 10:42:59 AM 38.1656 -90.7261 260° West 147 169 6,500  Level FAA TRACON SMA TRACON (SMA)
Sat 10:43:39 AM 38.1606 -90.7619 260° West 148 170 6,500 -74 Level FAA TRACON SMA TRACON (SMA)
Sat 10:44:20 AM 38.1564 -90.7928 259° West 144 166 6,400  Descending FAA TRACON SMA TRACON (SMA)
Sat 10:44:59 AM 38.1511 -90.8272 260° West 148 170 6,500  Climbing FAA TRACON SMA TRACON (SMA)
Sat 10:45:39 AM 38.1461 -90.8636 256° West 148 170 6,400 -74 Descending FAA TRACON SMA TRACON (SMA)
Sat 10:46:20 AM 38.1403 -90.8928 260° West 145 167 6,400  Level FAA TRACON SMA TRACON (SMA)
Sat 10:46:59 AM 38.1353 -90.9286 258° West 147 169 6,400 76 Level FAA TRACON SMA TRACON (SMA)
Sat 10:47:39 AM 38.1297 -90.9628 259° West 145 167 6,500 75 Climbing FAA TRACON SMA TRACON (SMA)
Sat 10:48:19 AM 38.1250 -90.9939 259° West 144 166 6,500  Level FAA TRACON SMA TRACON (SMA)
Sat 10:49:00 AM 38.1197 -91.0286 258° West 143 165 6,500 -75 Level FAA TRACON SMA TRACON (SMA)
Sat 10:49:39 AM 38.1142 -91.0631 261° West 144 166 6,400  Descending FAA TRACON SMA TRACON (SMA)
Sat 10:50:20 AM 38.1103 -91.0950 259° West 147 169 6,500 74 Climbing FAA TRACON SMA TRACON (SMA)
Sat 10:51:00 AM 38.1056 -91.1264 256° West 146 168 6,500  Level FAA TRACON SMA TRACON (SMA)
Sat 10:51:39 AM 38.0992 -91.1592 264° West 143 165 6,500 -76 Level FAA TRACON SMA TRACON (SMA)
Sat 10:52:19 AM 38.0958 -91.1967 253° West 149 171 6,400 -74 Descending FAA TRACON SMA TRACON (SMA)
Sat 10:53:00 AM 38.0881 -91.2283 260° West 146 168 6,400 75 Level FAA TRACON SMA TRACON (SMA)
Sat 10:53:39 AM 38.0831 -91.2633 257° West 146 168 6,500 76 Climbing FAA TRACON SMA TRACON (SMA)
Sat 10:54:19 AM 38.0783 -91.2900 263° West 142 163 6,500  Level FAA TRACON SMA TRACON (SMA)
Sat 10:55:42 AM 38.0669 -91.4122 261° West 146 168 6,500 42 Level Kansas City Center
Sat 10:56:42 AM 38.0600 -91.4653 256° West 146 168 6,600 50 Climbing Kansas City Center
Sat 10:57:42 AM 38.0508 -91.5131 260° West 146 168 6,600  Level Kansas City Center
Sat 10:58:42 AM 38.0436 -91.5633 256° West 146 168 6,600 -50 Level Kansas City Center
Sat 10:59:42 AM 38.0344 -91.6111 258° West 146 168 6,500  Descending Kansas City Center
Sat 11:00:42 AM 38.0253 -91.6642 256° West 146 168 6,600 50 Climbing Kansas City Center
Sat 11:01:42 AM 38.0158 -91.7119 260° West 146 168 6,600 -50 Level Kansas City Center
Sat 11:02:42 AM 38.0089 -91.7625 257° West 146 168 6,500  Descending Kansas City Center
Sat 11:03:42 AM 37.9994 -91.8128 257° West 146 168 6,600 50 Climbing Kansas City Center
Sat 11:04:42 AM 37.9903 -91.8633 260° West 146 168 6,600  Level Kansas City Center
Sat 11:05:42 AM 37.9831 -91.9136 255° West 146 168 6,600 -50 Level Kansas City Center
Sat 11:06:42 AM 37.9717 -91.9667 260° West 146 168 6,500 -50 Descending Kansas City Center
Sat 11:07:42 AM 37.9644 -92.0169 257° West 146 168 6,500  Level Kansas City Center
Sat 11:08:42 AM 37.9550 -92.0672 256° West 146 168 6,500 50 Level Kansas City Center
Sat 11:09:42 AM 37.9456 -92.1150 259° West 146 168 6,600 50 Climbing Kansas City Center
Sat 11:10:42 AM 37.9381 -92.1653 257° West 146 168 6,600  Level Kansas City Center
Sat 11:11:42 AM 37.9286 -92.2156 257° West 146 168 6,600 -50 Level Kansas City Center
Sat 11:12:42 AM 37.9192 -92.2658 256° West 146 168 6,500 -50 Descending Kansas City Center
Sat 11:13:42 AM 37.9097 -92.3136 256° West 146 168 6,500 50 Level Kansas City Center
Sat 11:14:42 AM 37.9000 -92.3639 260° West 146 168 6,600 50 Climbing Kansas City Center
Sat 11:15:42 AM 37.8947 -92.4033 257° West 146 168 6,600  Level Kansas City Center
Sat 11:16:42 AM 37.8850 -92.4564 257° West 146 168 6,600  Level Kansas City Center
Sat 11:17:42 AM 37.8756 -92.5067 256° West 146 168 6,600  Level Kansas City Center
Sat 11:18:42 AM 37.8658 -92.5569 259° West 146 168 6,600 -50 Level Kansas City Center
Sat 11:19:42 AM 37.8583 -92.6044 256° West 146 168 6,500 -50 Descending Kansas City Center
Sat 11:20:42 AM 37.8486 -92.6544 257° West 146 168 6,500 50 Level Kansas City Center
Sat 11:21:42 AM 37.8392 -92.7047 259° West 146 168 6,600 50 Climbing Kansas City Center
Sat 11:22:42 AM 37.8314 -92.7550 255° West 146 168 6,600  Level Kansas City Center
Sat 11:23:42 AM 37.8217 -92.8025 256° West 146 168 6,600  Level Kansas City Center
Sat 11:24:42 AM 37.8119 -92.8528 256° West 146 168 6,600  Level Kansas City Center
Sat 11:25:42 AM 37.8022 -92.9028 259° West 146 168 6,600  Level Kansas City Center
Sat 11:26:42 AM 37.7944 -92.9528 256° West 146 168 6,600  Level Kansas City Center
Sat 11:27:42 AM 37.7847 -93.0031 256° West 146 168 6,600 -50 Level Kansas City Center
Sat 11:28:42 AM 37.7750 -93.0531 258° West 146 168 6,500  Descending Kansas City Center
Sat 11:29:42 AM 37.7672 -93.1006 257° West 146 168 6,600 50 Climbing Kansas City Center
Sat 11:30:42 AM 37.7575 -93.1533 260° West 146 168 6,600 -7 Level Kansas City Center
Sat 11:44:19 AM 37.6569 -93.8425 247° West 148 170 6,500 -5 Descending Kansas City Center
Sat 11:49:18 AM 37.5786 -94.0764 259° West 155 178 6,500 17 Level Kansas City Center
Sat 11:50:19 AM 37.5706 -94.1286 258° West 155 178 6,600 50 Climbing Kansas City Center
Sat 11:51:19 AM 37.5622 -94.1786 253° West 150 173 6,600  Level Kansas City Center
Sat 11:52:19 AM 37.5500 -94.2283 258° West 150 173 6,600  Level Kansas City Center
Sat 11:53:19 AM 37.5417 -94.2781 255° West 150 173 6,600  Level Kansas City Center
Sat 11:54:19 AM 37.5314 -94.3281 259° West 145 167 6,600  Level Kansas City Center
Sat 11:55:19 AM 37.5231 -94.3803 250° West 150 173 6,600  Level Kansas City Center
Sat 11:56:19 AM 37.5106 -94.4247 255° West 145 167 6,600  Level Kansas City Center
Sat 11:57:19 AM 37.5003 -94.4747 257° West 145 167 6,600  Level Kansas City Center
Sat 11:58:19 AM 37.4919 -94.5217 256° West 145 167 6,600 -50 Level Kansas City Center
Sat 11:59:19 AM 37.4814 -94.5742 254° West 145 167 6,500 -50 Descending Kansas City Center
Sat 12:00:19 PM 37.4708 -94.6211 255° West 145 167 6,500 50 Level Kansas City Center
Sat 12:01:19 PM 37.4606 -94.6683 249° West 145 167 6,600 50 Climbing Kansas City Center
Sat 12:02:19 PM 37.4458 -94.7178 250° West 150 173 6,600  Level Kansas City Center
Sat 12:03:19 PM 37.4331 -94.7622 249° West 150 173 6,600  Level Kansas City Center
Sat 12:04:19 PM 37.4183 -94.8094 251° West 150 173 6,600  Level Kansas City Center
Sat 12:05:19 PM 37.4058 -94.8564 251° West 150 173 6,600  Level Kansas City Center
Sat 12:06:19 PM 37.3931 -94.9033 248° West 145 167 6,600  Level Kansas City Center
Sat 12:07:19 PM 37.3783 -94.9503 248° West 145 167 6,600  Level Kansas City Center
Sat 12:08:19 PM 37.3636 -94.9972 251° West 145 167 6,600  Level Kansas City Center
Sat 12:09:19 PM 37.3508 -95.0442 247° West 150 173 6,600  Level Kansas City Center
Sat 12:10:18 PM 37.3361 -95.0886 251° West 150 173 6,600  Level Kansas City Center
Sat 12:11:19 PM 37.3233 -95.1356 250° West 150 173 6,600  Level Kansas City Center
Sat 12:12:18 PM 37.3106 -95.1797 251° West 145 167 6,600  Level Kansas City Center
Sat 12:13:18 PM 37.2978 -95.2267 250° West 145 167 6,600  Level Kansas City Center
Sat 12:14:19 PM 37.2850 -95.2708 247° West 145 167 6,600  Level Kansas City Center
Sat 12:15:18 PM 37.2700 -95.3150 251° West 145 167 6,600  Level Kansas City Center
Sat 12:16:19 PM 37.2572 -95.3619 249° West 140 161 6,600  Level Kansas City Center
Sat 12:17:19 PM 37.2444 -95.4036 248° West 140 161 6,600  Level Kansas City Center
Sat 12:18:18 PM 37.2294 -95.4503 253° West 140 161 6,600  Level Kansas City Center
Sat 12:19:18 PM 37.2186 -95.4944 250° West 140 161 6,600  Level Kansas City Center
Sat 12:20:19 PM 37.2058 -95.5386 248° West 145 167 6,600 -50 Level Kansas City Center
Sat 12:21:19 PM 37.1908 -95.5853 250° West 145 167 6,500 -50 Descending Kansas City Center
Sat 12:22:19 PM 37.1778 -95.6294 251° West 145 167 6,500  Level Kansas City Center
Sat 12:23:18 PM 37.1650 -95.6764 246° West 145 167 6,500  Level Kansas City Center
Sat 12:24:19 PM 37.1497 -95.7203 250° West 145 167 6,500  Level Kansas City Center
Sat 12:25:18 PM 37.1369 -95.7644 250° West 145 167 6,500  Level Kansas City Center
Sat 12:26:19 PM 37.1239 -95.8086 250° West 145 167 6,500  Level Kansas City Center
Sat 12:27:19 PM 37.1108 -95.8525 250° West 145 167 6,500  Level Kansas City Center
Sat 12:28:19 PM 37.0978 -95.8967 249° West 145 167 6,500  Level Kansas City Center
Sat 12:29:19 PM 37.0869 -95.9328 248° West 145 167 6,500  Level Kansas City Center
Sat 12:30:19 PM 37.0719 -95.9794 250° West 140 161 6,500  Level Kansas City Center
Sat 12:31:19 PM 37.0586 -96.0258 250° West 140 161 6,500  Level Kansas City Center
Sat 12:32:19 PM 37.0456 -96.0700 247° West 140 161 6,500  Level Kansas City Center
Sat 12:33:19 PM 37.0306 -96.1139 252° West 140 161 6,500  Level Kansas City Center
Sat 12:34:18 PM 37.0194 -96.1578 248° West 140 161 6,500  Level Kansas City Center
Sat 12:35:19 PM 37.0042 -96.2044 252° West 140 161 6,500  Level Kansas City Center
Sat 12:36:19 PM 36.9931 -96.2483 248° West 146 168 6,500  Level Kansas City Center
Sat 12:37:19 PM 36.9778 -96.2947 248° West 146 168 6,500  Level Kansas City Center
Sat 12:38:19 PM 36.9647 -96.3361 248° West 146 168 6,500  Level Kansas City Center
Sat 12:39:19 PM 36.9494 -96.3825 252° West 146 168 6,500 -150 Level Kansas City Center
Sat 12:40:19 PM 36.9381 -96.4264 245° Southwest 146 168 6,200 -250 Descending Kansas City Center
Sat 12:41:19 PM 36.9186 -96.4778 251° West 151 174 6,000 -300 Descending Kansas City Center
Sat 12:42:19 PM 36.9053 -96.5269 250° West 151 174 5,600 -350 Descending Kansas City Center
Sat 12:43:19 PM 36.8919 -96.5733 249° West 151 174 5,300 -300 Descending Kansas City Center
Sat 12:44:19 PM 36.8764 -96.6247 250° West 151 174 5,000 -250 Descending Kansas City Center
Sat 12:45:19 PM 36.8631 -96.6711 249° West 151 174 4,800 -250 Descending Kansas City Center
Sat 12:46:19 PM 36.8497 -96.7150 247° West 146 168 4,500 -150 Descending Kansas City Center
Sat 12:47:19 PM 36.8342 -96.7611 249° West 146 168 4,500  Level Kansas City Center
Sat 12:48:19 PM 36.8208 -96.8050 249° West 146 168 4,500  Level Kansas City Center
Sat 12:49:19 PM 36.8075 -96.8486 249° West 146 168 4,500  Level Kansas City Center

Login

Don't have an account? Register now (free) for customized features, flight alerts, and more!